createdAt,value
2019-06-26T00:03:42.163Z,99739.14
2019-06-26T00:07:43.924Z,99747.36
2019-06-26T00:11:45.637Z,99741.56
2019-06-26T00:15:47.375Z,99734.45
2019-06-26T00:19:49.443Z,99746.98
2019-06-26T00:23:51.631Z,99742.55
2019-06-26T00:27:53.344Z,99752.03
2019-06-26T00:31:55.128Z,99751.38
2019-06-26T00:35:56.834Z,99750.34
2019-06-26T00:39:58.544Z,99753.59
2019-06-26T00:44:00.722Z,99761.73
2019-06-26T00:48:02.490Z,99763.09
2019-06-26T00:52:04.302Z,99760.72
2019-06-26T00:56:06.029Z,99758.48
2019-06-26T01:00:08.244Z,99771.91
2019-06-26T01:04:09.990Z,99773.80
2019-06-26T01:08:11.690Z,99772.19
2019-06-26T01:12:13.417Z,99775.02
2019-06-26T01:16:15.261Z,99778.75
2019-06-26T01:20:17.257Z,99780.66
2019-06-26T01:24:18.970Z,99780.22
2019-06-26T01:28:20.676Z,99779.78
2019-06-26T01:32:22.797Z,99780.20
2019-06-26T01:36:24.515Z,99786.56
2019-06-26T01:40:26.224Z,99781.56
2019-06-26T01:44:28.676Z,99785.11
2019-06-26T01:48:30.415Z,99785.70
2019-06-26T01:52:32.118Z,99787.98
2019-06-26T01:56:34.113Z,99793.76
2019-06-26T02:00:36.208Z,99795.89
2019-06-26T02:04:37.967Z,99803.27
2019-06-26T02:08:40.242Z,99804.59
2019-06-26T02:12:41.980Z,99800.78
2019-06-26T02:16:43.755Z,99807.80
2019-06-26T02:20:45.749Z,99807.65
2019-06-26T02:24:47.490Z,99808.34
2019-06-26T02:28:49.294Z,99805.36
2019-06-26T02:32:51.332Z,99815.30
2019-06-26T02:36:53.053Z,99817.95
2019-06-26T02:40:54.762Z,99826.31
2019-06-26T02:44:56.580Z,99823.78
2019-06-26T02:48:58.468Z,99829.80
2019-06-26T02:53:00.200Z,99820.33
2019-06-26T02:57:02.261Z,99823.13
2019-06-26T03:01:03.967Z,99832.81
2019-06-26T03:05:05.961Z,99838.96
2019-06-26T03:09:07.969Z,99841.77
2019-06-26T03:13:10.369Z,99846.13
2019-06-26T03:17:12.094Z,99847.38
2019-06-26T03:21:13.854Z,99853.28
2019-06-26T03:25:16.411Z,99852.36
2019-06-26T03:29:18.306Z,99869.19
2019-06-26T03:33:20.305Z,99863.63
2019-06-26T03:37:22.011Z,99875.35
2019-06-26T03:41:23.815Z,99874.69
2019-06-26T03:45:26.575Z,99882.39
2019-06-26T03:49:29.255Z,99885.05
2019-06-26T03:53:31.028Z,99895.37
2019-06-26T03:57:35.346Z,99893.09
2019-06-26T04:01:36.751Z,99899.66
2019-06-26T04:05:38.459Z,99898.41
2019-06-26T04:09:40.538Z,99900.09
2019-06-26T04:13:42.306Z,99906.57
2019-06-26T04:17:44.384Z,99910.59
2019-06-26T04:21:46.253Z,99915.48
2019-06-26T04:25:47.973Z,99920.73
2019-06-26T04:29:49.709Z,99923.38
2019-06-26T04:33:51.412Z,99924.78
2019-06-26T04:37:53.200Z,99928.44
2019-06-26T04:41:54.879Z,99926.89
2019-06-26T04:45:58.573Z,99939.00
2019-06-26T04:50:00.333Z,99939.16
2019-06-26T04:54:02.337Z,99948.34
2019-06-26T04:58:04.421Z,99944.52
2019-06-26T05:02:06.137Z,99944.60
2019-06-26T05:06:07.901Z,99947.30
2019-06-26T05:10:10.552Z,99944.48
2019-06-26T05:14:12.346Z,99949.69
2019-06-26T05:18:14.445Z,99949.52
2019-06-26T05:22:16.576Z,99948.98
2019-06-26T05:26:18.374Z,99955.81
2019-06-26T05:30:20.551Z,99957.02
2019-06-26T05:34:22.579Z,99972.62
2019-06-26T05:38:24.724Z,99974.97
2019-06-26T05:42:26.743Z,99974.42
2019-06-26T05:46:31.532Z,99976.94
2019-06-26T05:50:33.388Z,99981.73
2019-06-26T05:54:35.534Z,99981.82
2019-06-26T05:58:37.380Z,99986.14
2019-06-26T06:02:39.744Z,99984.19
2019-06-26T06:06:42.492Z,99988.19
2019-06-26T06:10:44.531Z,99995.50
2019-06-26T06:14:46.804Z,100000.05
2019-06-26T06:18:49.162Z,99997.09
2019-06-26T06:22:50.992Z,100005.68
2019-06-26T06:26:53.234Z,99999.27
2019-06-26T06:30:55.117Z,100001.67
2019-06-26T06:34:57.101Z,100001.34
2019-06-26T06:38:59.278Z,99999.80
2019-06-26T06:43:01.845Z,100014.42
2019-06-26T06:47:05.590Z,100021.95
2019-06-26T06:51:07.552Z,100019.84
2019-06-26T06:55:10.225Z,100020.67
2019-06-26T06:59:12.441Z,100028.84
2019-06-26T07:03:14.150Z,100031.77
2019-06-26T07:07:16.262Z,100029.75
2019-06-26T07:11:18.377Z,100038.66
2019-06-26T07:15:20.476Z,100040.41
2019-06-26T07:19:22.372Z,100044.20
2019-06-26T07:23:24.070Z,100045.55
2019-06-26T07:27:26.301Z,100043.30
2019-06-26T07:31:28.080Z,100052.16
2019-06-26T07:35:29.785Z,100046.08
2019-06-26T07:39:34.546Z,100055.50
2019-06-26T07:43:36.539Z,100063.45
2019-06-26T07:47:43.718Z,100074.77
2019-06-26T07:51:42.767Z,100076.12
2019-06-26T07:55:44.881Z,100076.19
2019-06-26T07:59:46.871Z,100073.72
2019-06-26T08:03:48.590Z,100079.50
2019-06-26T08:07:51.723Z,100076.80
2019-06-26T08:11:54.307Z,100080.35
2019-06-26T08:15:57.107Z,100086.17
2019-06-26T08:19:59.196Z,100086.70
2019-06-26T08:24:01.305Z,100089.14
2019-06-26T08:28:03.106Z,100090.94
2019-06-26T08:32:04.945Z,100097.35
2019-06-26T08:36:06.836Z,100093.42
2019-06-26T08:40:08.864Z,100096.59
2019-06-26T08:44:10.588Z,100093.39
2019-06-26T08:48:19.243Z,100092.25
2019-06-26T08:52:16.488Z,100087.23
2019-06-26T08:56:18.206Z,100089.30
2019-06-26T09:00:20.170Z,100084.66
2019-06-26T09:04:21.890Z,100103.55
2019-06-26T09:08:24.706Z,100105.49
2019-06-26T09:12:26.887Z,100098.72
2019-06-26T09:16:28.717Z,100100.47
2019-06-26T09:20:36.313Z,100099.23
2019-06-26T09:24:38.155Z,100097.52
2019-06-26T09:28:40.445Z,100104.56
2019-06-26T09:32:46.269Z,100102.97
2019-06-26T09:36:54.885Z,100098.24
2019-06-26T09:40:57.315Z,100102.92
2019-06-26T09:44:59.170Z,100100.95
2019-06-26T09:49:04.292Z,100099.15
2019-06-26T09:53:06.474Z,100101.71
2019-06-26T09:57:09.630Z,100097.46
2019-06-26T10:01:13.327Z,100100.62
2019-06-26T10:05:15.706Z,100098.11
2019-06-26T10:09:18.631Z,100089.52
2019-06-26T10:13:20.922Z,100090.41
2019-06-26T10:17:23.273Z,100093.58
2019-06-26T10:21:25.075Z,100089.95
2019-06-26T10:25:28.029Z,100091.01
2019-06-26T10:29:30.206Z,100094.49
2019-06-26T10:33:32.384Z,100097.33
2019-06-26T10:37:34.252Z,100108.23
2019-06-26T10:41:36.941Z,100107.53
2019-06-26T10:45:38.711Z,100105.56
2019-06-26T10:49:40.423Z,100110.39
2019-06-26T10:53:43.151Z,100110.93
2019-06-26T10:57:45.453Z,100116.14
2019-06-26T11:01:48.178Z,100094.72
2019-06-26T11:05:49.976Z,100101.80
2019-06-26T11:09:52.874Z,100104.56
2019-06-26T11:13:55.367Z,100100.25
2019-06-26T11:17:57.716Z,100097.27
2019-06-26T11:21:59.436Z,100095.81
2019-06-26T11:26:04.209Z,100101.27
2019-06-26T11:30:09.256Z,100104.12
2019-06-26T11:34:11.580Z,100102.73
2019-06-26T11:38:14.399Z,100109.47
2019-06-26T11:42:16.657Z,100111.23
2019-06-26T11:46:18.752Z,100099.13
2019-06-26T11:50:22.663Z,100096.93
2019-06-26T11:54:25.219Z,100103.42
2019-06-26T11:58:26.993Z,100092.45
2019-06-26T12:02:29.477Z,100097.44
2019-06-26T12:06:31.745Z,100094.74
2019-06-26T12:10:33.539Z,100095.30
2019-06-26T12:14:36.139Z,100102.98
2019-06-26T12:18:38.078Z,100108.41
2019-06-26T12:22:40.583Z,100096.94
2019-06-26T12:26:42.370Z,100102.63
2019-06-26T12:30:44.928Z,100093.33
2019-06-26T12:34:47.104Z,100090.11
2019-06-26T12:38:49.180Z,100090.08
2019-06-26T12:42:54.526Z,100091.97
2019-06-26T12:46:54.901Z,100096.39
2019-06-26T12:50:58.270Z,100095.55
2019-06-26T12:55:00.071Z,100094.61
2019-06-26T12:59:01.930Z,100078.43
2019-06-26T13:03:04.472Z,100085.45
2019-06-26T13:07:06.796Z,100085.21
2019-06-26T13:11:08.578Z,100072.59
2019-06-26T13:15:16.446Z,100072.91
2019-06-26T13:19:23.995Z,100072.00
2019-06-26T13:23:25.886Z,100062.45
2019-06-26T13:27:27.935Z,100069.19
2019-06-26T13:31:30.293Z,100071.90
2019-06-26T13:35:32.681Z,100082.34
2019-06-26T13:39:34.962Z,100074.77
2019-06-26T13:43:37.029Z,100080.10
2019-06-26T13:47:39.246Z,100079.81
2019-06-26T13:51:41.009Z,100088.52
2019-06-26T13:55:43.168Z,100080.91
2019-06-26T13:59:44.985Z,100087.63
2019-06-26T14:03:46.790Z,100083.63
2019-06-26T14:07:48.979Z,100089.45
2019-06-26T14:11:51.696Z,100093.45
2019-06-26T14:15:53.827Z,100087.58
2019-06-26T14:19:55.869Z,100078.59
2019-06-26T14:23:57.734Z,100077.89
2019-06-26T14:27:59.904Z,100077.09
2019-06-26T14:32:01.656Z,100082.13
2019-06-26T14:36:03.386Z,100068.35
2019-06-26T14:40:05.432Z,100070.27
2019-06-26T14:44:07.181Z,100073.46
2019-06-26T14:48:09.086Z,100059.11
2019-06-26T14:52:10.986Z,100059.48
2019-06-26T14:56:12.823Z,100055.27
2019-06-26T15:00:15.986Z,100061.64
2019-06-26T15:04:18.484Z,100049.05
2019-06-26T15:08:21.175Z,100048.67
2019-06-26T15:12:22.996Z,100051.91
2019-06-26T15:16:25.844Z,100050.73
2019-06-26T15:20:33.344Z,100039.45
2019-06-26T15:24:35.060Z,100038.50
2019-06-26T15:28:37.259Z,100032.86
2019-06-26T15:32:39.583Z,100027.18
2019-06-26T15:36:41.694Z,100013.48
2019-06-26T15:40:44.404Z,100017.00
2019-06-26T15:44:46.592Z,100007.84
2019-06-26T15:48:50.415Z,100011.23
2019-06-26T15:52:52.465Z,100005.03
2019-06-26T15:56:54.310Z,100004.86
2019-06-26T16:00:56.062Z,100006.52
2019-06-26T16:04:57.824Z,100011.56
2019-06-26T16:08:59.946Z,100007.16
2019-06-26T16:13:04.220Z,99999.29
2019-06-26T16:17:06.911Z,100006.63
2019-06-26T16:26:22.410Z,99995.19
2019-06-26T16:30:24.665Z,100010.75
2019-06-26T16:34:28.049Z,100007.56
2019-06-26T16:38:30.322Z,100006.65
2019-06-26T16:42:32.514Z,100011.24
2019-06-26T16:46:34.604Z,100005.89
2019-06-26T16:50:36.806Z,100003.49
2019-06-26T16:54:38.894Z,100008.42
2019-06-26T16:58:40.837Z,100015.80
2019-06-26T17:02:42.564Z,100021.81
2019-06-26T17:06:44.270Z,100020.03
2019-06-26T17:10:46.410Z,100020.23
2019-06-26T17:14:48.546Z,100022.79
2019-06-26T17:18:50.729Z,100017.97
2019-06-26T17:23:05.011Z,100023.98
2019-06-26T17:26:59.576Z,100028.25
2019-06-26T17:31:02.458Z,100023.25
2019-06-26T17:35:04.841Z,100026.48
2019-06-26T17:39:06.696Z,100023.28
2019-06-26T17:43:12.652Z,100029.23
2019-06-26T17:47:12.916Z,100022.48
2019-06-26T17:51:14.627Z,100025.12
2019-06-26T17:55:16.404Z,100028.30
2019-06-26T17:59:18.149Z,100028.59
2019-06-26T18:03:20.123Z,100025.99
2019-06-26T18:07:22.641Z,100024.38
2019-06-26T18:11:24.674Z,100026.16
2019-06-26T18:15:27.009Z,100022.23
2019-06-26T18:19:29.454Z,100027.52
2019-06-26T18:23:37.562Z,100020.08
2019-06-26T18:27:38.058Z,100026.10
2019-06-26T18:31:40.912Z,100016.97
2019-06-26T18:35:43.307Z,100023.72
2019-06-26T18:39:45.852Z,100026.08
2019-06-26T18:43:48.928Z,100024.50
2019-06-26T18:47:51.307Z,100022.70
2019-06-26T18:51:53.575Z,100027.52
2019-06-26T18:55:55.913Z,100032.18
2019-06-26T19:00:03.205Z,100023.97
2019-06-26T19:04:05.812Z,100031.55
2019-06-26T19:08:08.587Z,100030.72
2019-06-26T19:12:10.885Z,100033.02
2019-06-26T19:16:14.227Z,100046.75
2019-06-26T19:20:16.509Z,100060.22
2019-06-26T19:24:18.907Z,100047.34
2019-06-26T19:28:23.287Z,100058.31
2019-06-26T19:32:30.750Z,100066.86
2019-06-26T19:36:49.013Z,100069.85
2019-06-26T19:40:38.856Z,100080.92
2019-06-26T19:44:41.919Z,100081.59
2019-06-26T19:48:43.717Z,100092.86
2019-06-26T19:52:46.519Z,100094.33
2019-06-26T19:56:48.653Z,100099.63
2019-06-26T20:00:50.833Z,100088.11
2019-06-26T20:04:53.015Z,100108.13
2019-06-26T20:08:57.635Z,100105.77
2019-06-26T20:13:00.572Z,100107.86
2019-06-26T20:17:02.799Z,100116.42
2019-06-26T20:25:15.311Z,100122.89
2019-06-26T20:29:17.900Z,100124.91
2019-06-26T20:33:20.436Z,100122.29
2019-06-26T20:37:22.294Z,100125.65
2019-06-26T20:41:25.491Z,100129.18
2019-06-26T20:45:27.231Z,100134.61
2019-06-26T20:49:29.438Z,100151.82
2019-06-26T20:53:33.975Z,100141.47
2019-06-26T20:57:37.071Z,100155.92
2019-06-26T21:01:39.732Z,100156.30
2019-06-26T21:05:41.957Z,100154.92
2019-06-26T21:09:44.004Z,100157.36
2019-06-26T21:13:45.742Z,100166.47
2019-06-26T21:17:48.715Z,100170.67
2019-06-26T21:21:50.801Z,100168.92
2019-06-26T21:25:52.738Z,100171.16
2019-06-26T21:29:57.597Z,100171.52
2019-06-26T21:33:59.423Z,100178.02
2019-06-26T21:38:01.291Z,100183.02
2019-06-26T21:42:03.156Z,100194.50
2019-06-26T21:46:04.909Z,100183.81
2019-06-26T21:50:07.076Z,100185.75
2019-06-26T21:54:08.871Z,100181.89
2019-06-26T21:58:10.796Z,100183.36
2019-06-26T22:02:18.572Z,100191.98
2019-06-26T22:06:21.835Z,100190.20
2019-06-26T22:10:29.398Z,100196.72
2019-06-26T22:14:33.737Z,100197.65
2019-06-26T22:18:36.161Z,100194.02
2019-06-26T22:22:38.135Z,100195.25
2019-06-26T22:26:40.792Z,100193.84
2019-06-26T22:31:04.747Z,100191.16
2019-06-26T22:35:06.728Z,100194.13
2019-06-26T22:39:08.944Z,100198.27
2019-06-26T22:43:10.732Z,100202.67
2019-06-26T22:47:12.530Z,100208.11
2019-06-26T22:51:14.529Z,100203.86
2019-06-26T22:55:16.706Z,100207.45
2019-06-26T22:59:18.464Z,100209.35
2019-06-26T23:03:20.332Z,100211.98
2019-06-26T23:07:22.489Z,100214.18
2019-06-26T23:11:24.671Z,100210.67
2019-06-26T23:15:26.821Z,100214.30
2019-06-26T23:19:28.987Z,100218.45
2019-06-26T23:23:30.999Z,100220.44
2019-06-26T23:27:32.717Z,100219.28
2019-06-26T23:31:34.437Z,100219.83
2019-06-26T23:35:36.319Z,100222.26
2019-06-26T23:39:38.438Z,100229.91
2019-06-26T23:43:40.239Z,100237.84
2019-06-26T23:47:42.597Z,100240.46
2019-06-26T23:51:44.692Z,100242.80
2019-06-26T23:55:46.788Z,100252.19
2019-06-26T23:59:48.788Z,100252.94
